Time;durP1;ratioP1;P1;durP2;ratioP2;P2;SDS_P1;SDS_P2;PMS_P1;PMS_P2;Temp;Humidity;BMP_temperature;BMP_pressure;BME280_temperature;BME280_humidity;BME280_pressure;Samples;Min_cycle;Max_cycle;Signal;HPM_P1;HPM_P2
2022/01/19 00:00:01;;;;;;;6.70;3.40;;;;;;;;;;4976660;28;20244;-80
2022/01/19 00:02:28;;;;;;;6.63;2.83;;;;;;;;;;4979585;28;20331;-80
2022/01/19 00:04:57;;;;;;;4.73;2.90;;;;;;;;;;4977837;28;20232;-79
2022/01/19 00:07:24;;;;;;;6.03;2.90;;;;;;;;;;4980024;28;20202;-80
2022/01/19 00:09:52;;;;;;;7.17;3.07;;;;;;;;;;4976129;28;20316;-80
2022/01/19 00:12:19;;;;;;;7.80;3.27;;;;;;;;;;4977463;28;20702;-79
2022/01/19 00:14:46;;;;;;;4.73;3.20;;;;;;;;;;4983718;28;20292;-80
2022/01/19 00:17:13;;;;;;;4.60;2.70;;;;;;;;;;4977683;28;20284;-80
2022/01/19 00:19:40;;;;;;;4.43;2.80;;;;;;;;;;4978319;28;20209;-80
2022/01/19 00:22:09;;;;;;;4.83;2.80;;;;;;;;;;4975618;28;20728;-80
2022/01/19 00:24:36;;;;;;;6.10;2.50;;;;;;;;;;4978109;28;20672;-80
2022/01/19 00:27:03;;;;;;;5.03;3.17;;;;;;;;;;4977125;28;20296;-80
2022/01/19 00:29:30;;;;;;;4.83;3.00;;;;;;;;;;4980056;28;20235;-80
2022/01/19 00:31:58;;;;;;;4.40;2.80;;;;;;;;;;4978127;28;20206;-80
2022/01/19 00:34:25;;;;;;;5.20;2.77;;;;;;;;;;4975892;28;20233;-80
2022/01/19 00:36:52;;;;;;;3.97;2.63;;;;;;;;;;4977107;28;20732;-79
2022/01/19 00:39:23;;;;;;;4.17;2.50;;;;;;;;;;4979265;28;20683;-79
2022/01/19 00:41:50;;;;;;;4.80;3.10;;;;;;;;;;4977408;28;20764;-79
2022/01/19 00:44:17;;;;;;;5.40;2.70;;;;;;;;;;4976406;28;20720;-80
2022/01/19 00:46:44;;;;;;;5.57;2.90;;;;;;;;;;4980009;28;20217;-80
2022/01/19 00:49:12;;;;;;;3.30;2.50;;;;;;;;;;4977768;28;20316;-80
2022/01/19 00:51:39;;;;;;;3.53;2.67;;;;;;;;;;4981609;28;20223;-80
2022/01/19 00:54:06;;;;;;;3.97;2.60;;;;;;;;;;4975942;28;20716;-80
2022/01/19 00:56:36;;;;;;;4.53;2.60;;;;;;;;;;4976869;28;20731;-80
2022/01/19 00:59:03;;;;;;;5.10;2.97;;;;;;;;;;4975261;28;20208;-81
2022/01/19 01:01:31;;;;;;;4.17;2.80;;;;;;;;;;4980537;28;20339;-81
2022/01/19 01:03:58;;;;;;;4.10;2.87;;;;;;;;;;4979698;28;20671;-81
2022/01/19 01:06:25;;;;;;;4.80;2.83;;;;;;;;;;4976984;28;20202;-80
2022/01/19 01:08:52;;;;;;;5.10;2.97;;;;;;;;;;4976460;28;20224;-80
2022/01/19 01:11:28;;;;;;;5.60;3.13;;;;;;;;;;4975772;28;20213;-81
2022/01/19 01:16:59;;;;;;;4.33;3.20;;;;;;;;;;4978550;28;20577;-77
2022/01/19 01:19:26;;;;;;;4.70;3.10;;;;;;;;;;4974340;28;20201;-77
2022/01/19 01:21:53;;;;;;;4.00;3.00;;;;;;;;;;4974287;28;20290;-77
2022/01/19 01:24:20;;;;;;;4.40;3.00;;;;;;;;;;4975907;28;20265;-77
2022/01/19 01:26:48;;;;;;;8.57;3.40;;;;;;;;;;4979776;28;20215;-77
2022/01/19 01:29:16;;;;;;;6.37;3.07;;;;;;;;;;4977447;28;20699;-77
2022/01/19 01:31:43;;;;;;;4.13;3.10;;;;;;;;;;4978343;28;20255;-77
2022/01/19 01:34:10;;;;;;;5.43;3.20;;;;;;;;;;4976477;28;20227;-79
2022/01/19 01:36:38;;;;;;;5.20;3.33;;;;;;;;;;4978299;28;20292;-78
2022/01/19 01:39:05;;;;;;;5.30;3.20;;;;;;;;;;4974944;28;20201;-79
2022/01/19 01:41:32;;;;;;;5.67;3.07;;;;;;;;;;4975549;28;20215;-79
2022/01/19 01:43:59;;;;;;;5.80;3.17;;;;;;;;;;4976317;28;20321;-78
2022/01/19 01:46:34;;;;;;;5.77;3.13;;;;;;;;;;4975573;28;20237;-79
2022/01/19 01:49:02;;;;;;;6.83;3.30;;;;;;;;;;4975953;28;21016;-81
2022/01/19 01:54:14;;;;;;;5.20;3.47;;;;;;;;;;4974213;28;20224;-79
2022/01/19 01:56:41;;;;;;;6.10;3.90;;;;;;;;;;4977676;28;20301;-79
2022/01/19 01:59:10;;;;;;;7.17;3.47;;;;;;;;;;4975452;28;20217;-79
2022/01/19 02:01:40;;;;;;;6.20;3.30;;;;;;;;;;4976979;28;20209;-79
2022/01/19 02:04:07;;;;;;;6.90;3.67;;;;;;;;;;4975284;28;20233;-81
2022/01/19 02:06:46;;;;;;;5.43;3.33;;;;;;;;;;4976209;28;20640;-79
2022/01/19 02:09:17;;;;;;;7.63;3.20;;;;;;;;;;4976396;28;20619;-80
2022/01/19 02:23:16;;;;;;;5.53;3.20;;;;;;;;;;4977438;28;20227;-79
2022/01/19 02:25:45;;;;;;;4.80;3.27;;;;;;;;;;4978721;28;20739;-79
2022/01/19 02:36:54;;;;;;;3.57;2.83;;;;;;;;;;4980563;28;20577;-80
2022/01/19 02:42:08;;;;;;;5.30;2.93;;;;;;;;;;4979001;28;20205;-79
2022/01/19 02:46:36;;;;;;;3.47;2.40;;;;;;;;;;4977047;28;20305;-80
2022/01/19 02:50:12;;;;;;;4.80;2.83;;;;;;;;;;4978496;28;20227;-78
2022/01/19 02:52:40;;;;;;;4.07;2.77;;;;;;;;;;4980610;28;20315;-78
2022/01/19 02:55:08;;;;;;;4.47;2.50;;;;;;;;;;4978518;28;20304;-79
2022/01/19 02:57:36;;;;;;;3.70;2.33;;;;;;;;;;4980435;28;20213;-79
2022/01/19 03:11:01;;;;;;;5.37;2.47;;;;;;;;;;4980516;28;20259;-79
2022/01/19 03:13:29;;;;;;;3.47;2.30;;;;;;;;;;4977982;28;20229;-79
2022/01/19 03:15:56;;;;;;;3.43;2.30;;;;;;;;;;4977883;28;20241;-79
2022/01/19 03:18:23;;;;;;;3.13;2.20;;;;;;;;;;4982788;28;20287;-79
2022/01/19 03:20:50;;;;;;;3.13;2.00;;;;;;;;;;4977809;28;20204;-80
2022/01/19 03:23:20;;;;;;;2.80;1.97;;;;;;;;;;4979298;28;20307;-80
2022/01/19 03:25:48;;;;;;;4.13;1.83;;;;;;;;;;4980984;28;20220;-79
2022/01/19 03:28:15;;;;;;;4.00;1.97;;;;;;;;;;4980230;28;20312;-80
2022/01/19 03:30:43;;;;;;;2.67;2.07;;;;;;;;;;4981823;28;20225;-80
2022/01/19 03:33:10;;;;;;;2.23;1.93;;;;;;;;;;4982111;28;20257;-80
2022/01/19 03:35:38;;;;;;;2.97;1.93;;;;;;;;;;4978505;28;20345;-80
2022/01/19 03:38:05;;;;;;;2.77;1.87;;;;;;;;;;4980284;28;20210;-79
2022/01/19 03:40:34;;;;;;;2.40;1.80;;;;;;;;;;4977254;28;20281;-79
2022/01/19 03:43:01;;;;;;;2.23;1.70;;;;;;;;;;4978921;28;20226;-79
2022/01/19 03:45:31;;;;;;;2.57;1.97;;;;;;;;;;4978993;28;20212;-81
2022/01/19 03:48:14;;;;;;;4.10;1.70;;;;;;;;;;4977521;28;20304;-78
2022/01/19 03:50:42;;;;;;;2.67;1.70;;;;;;;;;;4977538;28;20229;-79
2022/01/19 03:53:09;;;;;;;3.00;1.60;;;;;;;;;;4976669;28;20233;-80
2022/01/19 03:55:38;;;;;;;3.17;1.83;;;;;;;;;;4977556;28;20209;-79
2022/01/19 03:58:05;;;;;;;2.30;1.77;;;;;;;;;;4978260;28;20237;-79
2022/01/19 04:00:35;;;;;;;3.03;1.73;;;;;;;;;;4977599;28;20213;-79
2022/01/19 04:03:06;;;;;;;3.23;1.70;;;;;;;;;;4977602;28;20232;-78
2022/01/19 04:05:42;;;;;;;3.17;1.80;;;;;;;;;;4976390;28;20218;-79
2022/01/19 04:08:10;;;;;;;2.73;1.80;;;;;;;;;;4976337;28;20672;-79
2022/01/19 04:10:39;;;;;;;2.83;1.90;;;;;;;;;;4979013;28;20229;-79
2022/01/19 04:13:22;;;;;;;2.87;2.20;;;;;;;;;;4978983;28;20232;-78
2022/01/19 04:15:50;;;;;;;3.60;2.00;;;;;;;;;;4977506;28;20638;-78
2022/01/19 04:18:17;;;;;;;8.23;2.30;;;;;;;;;;4974063;28;20252;-77
2022/01/19 04:20:48;;;;;;;5.30;2.60;;;;;;;;;;4978237;28;20209;-78
2022/01/19 04:23:16;;;;;;;4.30;2.53;;;;;;;;;;4975868;28;20654;-78
2022/01/19 04:25:44;;;;;;;4.90;2.60;;;;;;;;;;4976924;28;20698;-79
2022/01/19 04:28:12;;;;;;;4.17;2.80;;;;;;;;;;4977434;28;20212;-79
2022/01/19 04:30:40;;;;;;;5.60;3.27;;;;;;;;;;4975348;28;20229;-79
2022/01/19 04:33:10;;;;;;;4.50;3.30;;;;;;;;;;4975085;28;20769;-79
2022/01/19 04:35:45;;;;;;;4.23;3.10;;;;;;;;;;4976541;28;20220;-78
2022/01/19 05:03:18;;;;;;;5.67;4.00;;;;;;;;;;4977220;28;20224;-79
2022/01/19 05:05:51;;;;;;;6.33;4.40;;;;;;;;;;4978805;28;20221;-78
2022/01/19 05:08:36;;;;;;;6.40;4.47;;;;;;;;;;4979272;28;20260;-78
2022/01/19 05:13:52;;;;;;;6.70;4.50;;;;;;;;;;4976596;28;20224;-78
2022/01/19 05:16:20;;;;;;;7.43;4.53;;;;;;;;;;4975156;28;20209;-82
2022/01/19 05:18:47;;;;;;;7.03;4.67;;;;;;;;;;4975199;28;20216;-78
2022/01/19 05:21:14;;;;;;;8.87;5.30;;;;;;;;;;4974017;28;20217;-78
2022/01/19 05:23:42;;;;;;;10.63;5.40;;;;;;;;;;4975216;28;20303;-79
2022/01/19 05:26:09;;;;;;;6.50;4.33;;;;;;;;;;4976439;28;20232;-78
2022/01/19 05:28:37;;;;;;;7.63;4.97;;;;;;;;;;4976801;28;20217;-79
2022/01/19 05:31:06;;;;;;;7.10;4.57;;;;;;;;;;4975140;28;20312;-78
2022/01/19 05:33:33;;;;;;;6.40;4.77;;;;;;;;;;4973681;28;20261;-79
2022/01/19 05:36:00;;;;;;;6.40;4.43;;;;;;;;;;4974263;28;20591;-79
2022/01/19 05:38:28;;;;;;;9.33;4.37;;;;;;;;;;4975897;28;20243;-80
2022/01/19 05:40:55;;;;;;;6.47;4.30;;;;;;;;;;4974543;28;20198;-80
2022/01/19 05:43:23;;;;;;;6.23;4.40;;;;;;;;;;4978631;28;20338;-78
2022/01/19 05:45:50;;;;;;;6.47;4.17;;;;;;;;;;4981118;28;20308;-78
2022/01/19 05:48:19;;;;;;;6.30;4.23;;;;;;;;;;4979609;28;20298;-78
2022/01/19 05:50:46;;;;;;;5.30;3.80;;;;;;;;;;4978777;28;20601;-79
2022/01/19 05:53:15;;;;;;;5.40;3.77;;;;;;;;;;4978688;28;20248;-78
2022/01/19 05:55:42;;;;;;;5.37;3.87;;;;;;;;;;4978100;28;20664;-78
2022/01/19 05:58:09;;;;;;;7.27;4.00;;;;;;;;;;4979115;28;20204;-78
2022/01/19 06:00:37;;;;;;;5.47;3.70;;;;;;;;;;4978768;28;20742;-80
2022/01/19 06:03:04;;;;;;;5.17;3.73;;;;;;;;;;4980155;28;20221;-78
2022/01/19 06:05:33;;;;;;;4.93;3.50;;;;;;;;;;4979938;28;20220;-77
2022/01/19 06:08:16;;;;;;;4.37;3.47;;;;;;;;;;4978869;28;20692;-80
2022/01/19 06:10:43;;;;;;;5.43;3.77;;;;;;;;;;4980201;28;20225;-79
2022/01/19 06:13:10;;;;;;;4.53;3.23;;;;;;;;;;4977226;28;20230;-78
2022/01/19 06:15:38;;;;;;;5.23;3.47;;;;;;;;;;4976631;28;20648;-77
2022/01/19 06:18:05;;;;;;;5.33;3.93;;;;;;;;;;4979881;28;20248;-77
2022/01/19 06:20:34;;;;;;;5.20;3.80;;;;;;;;;;4979868;28;20698;-80
2022/01/19 06:23:01;;;;;;;5.77;3.50;;;;;;;;;;4976375;28;20312;-78
2022/01/19 06:25:28;;;;;;;5.53;4.10;;;;;;;;;;4977047;28;20328;-81
2022/01/19 06:27:55;;;;;;;5.57;3.97;;;;;;;;;;4980531;28;20661;-80
2022/01/19 06:30:22;;;;;;;5.83;4.17;;;;;;;;;;4978882;28;20224;-78
2022/01/19 06:32:50;;;;;;;6.50;4.23;;;;;;;;;;4980155;28;20236;-80
2022/01/19 06:35:17;;;;;;;7.10;4.90;;;;;;;;;;4979728;28;20254;-79
2022/01/19 06:37:46;;;;;;;8.13;4.90;;;;;;;;;;4977700;28;20205;-80
2022/01/19 06:40:14;;;;;;;7.27;3.73;;;;;;;;;;4976782;28;20719;-79
2022/01/19 06:42:41;;;;;;;5.43;4.27;;;;;;;;;;4977257;28;20232;-79
2022/01/19 06:45:10;;;;;;;5.17;3.97;;;;;;;;;;4981202;28;20292;-80
2022/01/19 06:47:37;;;;;;;6.10;4.00;;;;;;;;;;4981240;28;20197;-79
2022/01/19 06:50:06;;;;;;;6.33;3.60;;;;;;;;;;4982169;28;20232;-79
2022/01/19 06:52:33;;;;;;;6.70;3.93;;;;;;;;;;4978153;28;20252;-79
2022/01/19 06:55:01;;;;;;;4.97;3.70;;;;;;;;;;4977659;28;20216;-80
2022/01/19 06:57:28;;;;;;;9.83;4.33;;;;;;;;;;4982176;28;20241;-81
2022/01/19 06:59:56;;;;;;;7.07;4.90;;;;;;;;;;4977366;28;20205;-79
2022/01/19 07:02:23;;;;;;;6.73;4.40;;;;;;;;;;4978849;28;20280;-79
2022/01/19 07:04:50;;;;;;;7.50;4.43;;;;;;;;;;4974977;28;20210;-78
2022/01/19 07:07:18;;;;;;;6.47;4.30;;;;;;;;;;4978083;28;20208;-79
2022/01/19 07:09:45;;;;;;;4.60;3.40;;;;;;;;;;4980587;28;20335;-79
2022/01/19 07:12:14;;;;;;;5.90;4.07;;;;;;;;;;4978008;28;20225;-78
2022/01/19 07:14:42;;;;;;;5.93;3.90;;;;;;;;;;4975818;28;20252;-79
2022/01/19 07:17:09;;;;;;;5.40;4.27;;;;;;;;;;4983215;28;20201;-78
2022/01/19 07:19:37;;;;;;;6.30;4.60;;;;;;;;;;4977752;28;20215;-79
2022/01/19 07:22:04;;;;;;;8.00;4.77;;;;;;;;;;4978327;28;22108;-80
2022/01/19 07:24:32;;;;;;;5.70;4.10;;;;;;;;;;4978021;28;20272;-78
2022/01/19 07:26:59;;;;;;;5.77;4.10;;;;;;;;;;4978128;28;20210;-79
2022/01/19 07:29:27;;;;;;;6.00;4.13;;;;;;;;;;4978891;28;20304;-79
2022/01/19 07:31:57;;;;;;;6.83;3.87;;;;;;;;;;4975503;28;20248;-79
2022/01/19 07:34:25;;;;;;;5.97;3.80;;;;;;;;;;4977428;28;20430;-79
2022/01/19 07:36:52;;;;;;;4.57;3.57;;;;;;;;;;4975891;28;20213;-79
2022/01/19 07:39:20;;;;;;;8.43;3.80;;;;;;;;;;4977161;28;20288;-79
2022/01/19 07:41:47;;;;;;;8.83;4.00;;;;;;;;;;4976995;28;20209;-79
2022/01/19 07:44:14;;;;;;;6.13;4.43;;;;;;;;;;4980570;28;20720;-79
2022/01/19 07:46:43;;;;;;;7.10;4.17;;;;;;;;;;4977089;28;20769;-80
2022/01/19 07:49:10;;;;;;;8.33;4.73;;;;;;;;;;4977673;28;20382;-78
2022/01/19 07:51:37;;;;;;;7.33;4.60;;;;;;;;;;4975860;28;20236;-78
2022/01/19 07:54:04;;;;;;;8.50;4.67;;;;;;;;;;4978130;28;20661;-78
2022/01/19 07:56:32;;;;;;;5.73;4.27;;;;;;;;;;4976977;28;20571;-78
2022/01/19 07:58:59;;;;;;;9.53;5.83;;;;;;;;;;4978622;28;20287;-78
2022/01/19 08:01:30;;;;;;;8.47;4.93;;;;;;;;;;4978832;28;20213;-78
2022/01/19 08:03:59;;;;;;;10.17;5.60;;;;;;;;;;4976813;28;20229;-78
2022/01/19 08:06:26;;;;;;;10.00;5.10;;;;;;;;;;4978776;28;20624;-79
2022/01/19 08:08:54;;;;;;;9.40;5.50;;;;;;;;;;4979445;28;20212;-79
2022/01/19 08:11:21;;;;;;;9.93;5.60;;;;;;;;;;4984199;28;20239;-79
2022/01/19 08:13:48;;;;;;;9.20;5.27;;;;;;;;;;4977640;28;20225;-78
2022/01/19 08:16:16;;;;;;;9.00;5.20;;;;;;;;;;4975018;28;20249;-78
2022/01/19 08:18:43;;;;;;;8.67;4.73;;;;;;;;;;4974586;28;20233;-79
2022/01/19 08:21:11;;;;;;;8.27;5.10;;;;;;;;;;4976229;28;20205;-79
2022/01/19 08:23:39;;;;;;;8.57;5.10;;;;;;;;;;4972968;28;20669;-78
2022/01/19 08:26:06;;;;;;;10.77;5.40;;;;;;;;;;4974277;28;20336;-79
2022/01/19 08:28:33;;;;;;;9.50;5.40;;;;;;;;;;4975652;28;20216;-78
2022/01/19 08:31:00;;;;;;;9.33;5.30;;;;;;;;;;4980653;28;20249;-78
2022/01/19 08:33:28;;;;;;;13.03;7.07;;;;;;;;;;4980189;28;20222;-79
2022/01/19 08:35:55;;;;;;;68.10;25.23;;;;;;;;;;4978158;28;20292;-79
2022/01/19 08:38:24;;;;;;;15.53;7.90;;;;;;;;;;4979706;28;20292;-79
2022/01/19 08:40:51;;;;;;;11.27;5.90;;;;;;;;;;4980027;28;20248;-79
2022/01/19 08:43:18;;;;;;;8.70;5.07;;;;;;;;;;4977185;28;20271;-79
2022/01/19 08:45:45;;;;;;;11.03;6.07;;;;;;;;;;4975440;28;20300;-79
2022/01/19 08:48:12;;;;;;;9.77;5.83;;;;;;;;;;4974063;28;20217;-79
2022/01/19 08:50:40;;;;;;;14.57;7.07;;;;;;;;;;4972184;28;20293;-77
2022/01/19 08:53:07;;;;;;;21.10;11.93;;;;;;;;;;4974016;28;20299;-77
2022/01/19 08:55:36;;;;;;;12.30;6.80;;;;;;;;;;4980925;28;20233;-78
2022/01/19 08:58:03;;;;;;;11.33;6.00;;;;;;;;;;4981934;28;20229;-78
2022/01/19 09:00:31;;;;;;;10.97;6.73;;;;;;;;;;4974770;28;20229;-78
2022/01/19 09:02:58;;;;;;;17.90;10.67;;;;;;;;;;4976581;28;20241;-78
2022/01/19 09:05:25;;;;;;;8.97;5.33;;;;;;;;;;4978387;28;20288;-78
2022/01/19 09:07:53;;;;;;;9.60;5.33;;;;;;;;;;4974940;28;20216;-77
2022/01/19 09:10:22;;;;;;;9.97;5.70;;;;;;;;;;4977363;28;20202;-79
2022/01/19 09:12:50;;;;;;;10.43;5.63;;;;;;;;;;4981091;28;20232;-79
2022/01/19 09:15:18;;;;;;;12.03;5.93;;;;;;;;;;4975763;28;20756;-78
2022/01/19 09:17:45;;;;;;;12.57;6.43;;;;;;;;;;4980482;28;20696;-79
2022/01/19 09:20:13;;;;;;;23.87;12.37;;;;;;;;;;4976254;28;20549;-79
2022/01/19 09:22:40;;;;;;;25.97;12.60;;;;;;;;;;4976614;28;20243;-79
2022/01/19 09:25:09;;;;;;;10.83;6.07;;;;;;;;;;4975311;28;20759;-79
2022/01/19 09:27:37;;;;;;;11.17;6.43;;;;;;;;;;4977035;28;20295;-79
2022/01/19 09:30:07;;;;;;;16.50;7.03;;;;;;;;;;4977494;28;20236;-79
2022/01/19 09:32:34;;;;;;;13.00;6.57;;;;;;;;;;4977599;28;20231;-79
2022/01/19 09:35:07;;;;;;;18.90;10.40;;;;;;;;;;4980535;28;20338;-78
2022/01/19 09:37:34;;;;;;;24.73;10.43;;;;;;;;;;4983355;28;20692;-78
2022/01/19 09:40:02;;;;;;;20.97;10.00;;;;;;;;;;4976524;28;20212;-79
2022/01/19 09:42:29;;;;;;;13.60;8.13;;;;;;;;;;4977734;28;20221;-79
2022/01/19 09:44:56;;;;;;;14.13;7.47;;;;;;;;;;4981286;28;20944;-79
2022/01/19 09:47:25;;;;;;;15.73;9.63;;;;;;;;;;4986506;28;20295;-79
2022/01/19 09:49:52;;;;;;;22.47;11.60;;;;;;;;;;4976957;28;20237;-79
2022/01/19 09:52:23;;;;;;;12.70;7.20;;;;;;;;;;4969945;28;20276;-78
2022/01/19 09:54:53;;;;;;;27.40;15.63;;;;;;;;;;4974612;28;20216;-78
2022/01/19 09:57:20;;;;;;;29.53;16.43;;;;;;;;;;4976539;28;20209;-78
2022/01/19 09:59:47;;;;;;;14.73;7.27;;;;;;;;;;4975928;28;20288;-78
2022/01/19 10:02:15;;;;;;;32.97;16.40;;;;;;;;;;4973390;28;20214;-78
2022/01/19 10:04:45;;;;;;;19.73;9.93;;;;;;;;;;4977338;28;20288;-78
2022/01/19 10:07:13;;;;;;;20.67;10.27;;;;;;;;;;4975254;28;20209;-78
2022/01/19 10:09:50;;;;;;;26.57;11.67;;;;;;;;;;4975336;28;20205;-78
2022/01/19 10:17:56;;;;;;;47.43;23.47;;;;;;;;;;4975246;28;20209;-78
2022/01/19 10:20:25;;;;;;;18.73;7.83;;;;;;;;;;4972955;28;20220;-76
2022/01/19 10:22:52;;;;;;;21.13;10.47;;;;;;;;;;4971751;28;20222;-78
2022/01/19 10:25:20;;;;;;;38.60;20.30;;;;;;;;;;4975499;28;20225;-77
2022/01/19 10:27:47;;;;;;;23.47;13.10;;;;;;;;;;4975660;28;20210;-75
2022/01/19 10:30:16;;;;;;;24.07;11.47;;;;;;;;;;4979046;28;20212;-73
2022/01/19 10:32:46;;;;;;;22.97;11.37;;;;;;;;;;4975808;28;20233;-75
2022/01/19 10:35:16;;;;;;;34.60;17.10;;;;;;;;;;4977492;28;20281;-76
2022/01/19 10:37:44;;;;;;;30.43;16.47;;;;;;;;;;4971962;28;20214;-75
2022/01/19 10:40:15;;;;;;;35.13;17.70;;;;;;;;;;4980141;28;20401;-77
2022/01/19 10:42:42;;;;;;;25.90;12.67;;;;;;;;;;4981162;28;20319;-76
2022/01/19 10:45:11;;;;;;;29.23;16.17;;;;;;;;;;4978574;28;20215;-76
2022/01/19 10:47:39;;;;;;;26.30;13.13;;;;;;;;;;4977703;28;20626;-76
2022/01/19 10:50:07;;;;;;;53.60;29.20;;;;;;;;;;4981018;28;20289;-77
2022/01/19 10:52:36;;;;;;;42.97;23.27;;;;;;;;;;4978618;28;20230;-76
2022/01/19 10:55:07;;;;;;;24.43;12.13;;;;;;;;;;4978591;28;20220;-76
2022/01/19 10:57:34;;;;;;;16.27;7.70;;;;;;;;;;4978518;28;20674;-77
2022/01/19 11:00:15;;;;;;;27.43;13.20;;;;;;;;;;4975211;28;20202;-76
2022/01/19 11:02:43;;;;;;;18.97;9.10;;;;;;;;;;4976525;28;20755;-76
2022/01/19 11:05:10;;;;;;;14.53;7.97;;;;;;;;;;4974527;28;20598;-76
2022/01/19 11:07:38;;;;;;;21.13;9.43;;;;;;;;;;4977472;28;20239;-77
2022/01/19 11:10:13;;;;;;;29.43;13.80;;;;;;;;;;4983456;28;20214;-77
2022/01/19 11:12:45;;;;;;;22.20;10.53;;;;;;;;;;4978683;28;20316;-76
2022/01/19 11:15:13;;;;;;;18.07;8.63;;;;;;;;;;4975952;28;20264;-77
2022/01/19 11:17:40;;;;;;;22.57;11.03;;;;;;;;;;4977212;28;20209;-77
2022/01/19 11:20:09;;;;;;;16.17;8.57;;;;;;;;;;4975406;28;20206;-77
2022/01/19 11:22:41;;;;;;;18.07;8.23;;;;;;;;;;4976413;28;20225;-75
2022/01/19 11:25:14;;;;;;;18.10;8.67;;;;;;;;;;4975302;28;20671;-76
2022/01/19 11:27:43;;;;;;;20.30;10.00;;;;;;;;;;4978170;28;20307;-77
2022/01/19 11:30:15;;;;;;;24.20;12.97;;;;;;;;;;4976225;28;20305;-77
2022/01/19 11:32:42;;;;;;;15.20;8.33;;;;;;;;;;4975632;28;20234;-76
2022/01/19 11:35:11;;;;;;;17.97;8.90;;;;;;;;;;4979893;28;20288;-77
2022/01/19 11:37:40;;;;;;;19.67;9.90;;;;;;;;;;4978307;28;20233;-77
2022/01/19 11:40:09;;;;;;;14.47;7.30;;;;;;;;;;4982241;28;20213;-77
2022/01/19 11:42:38;;;;;;;28.63;14.30;;;;;;;;;;4975059;28;20602;-77
2022/01/19 11:45:06;;;;;;;88.97;42.30;;;;;;;;;;4975798;28;20205;-76
2022/01/19 11:47:34;;;;;;;45.53;23.57;;;;;;;;;;4979347;28;20279;-76
2022/01/19 11:50:03;;;;;;;75.10;33.53;;;;;;;;;;4982104;28;20275;-77
2022/01/19 11:52:47;;;;;;;28.20;15.43;;;;;;;;;;4974966;28;20244;-77
2022/01/19 11:55:15;;;;;;;40.43;19.90;;;;;;;;;;4978652;28;20687;-77
2022/01/19 11:57:45;;;;;;;34.77;15.53;;;;;;;;;;4972569;28;20289;-77
2022/01/19 12:00:15;;;;;;;48.27;24.53;;;;;;;;;;4978740;28;20237;-77
2022/01/19 12:02:44;;;;;;;30.03;12.83;;;;;;;;;;4973178;28;20312;-77
2022/01/19 12:05:32;;;;;;;26.73;12.50;;;;;;;;;;4973930;28;20221;-77
2022/01/19 12:08:00;;;;;;;82.93;32.97;;;;;;;;;;4973928;28;20206;-77
2022/01/19 12:10:46;;;;;;;44.60;19.23;;;;;;;;;;4975265;28;20771;-77
2022/01/19 12:13:28;;;;;;;38.67;14.93;;;;;;;;;;4977022;28;20267;-77
2022/01/19 12:15:59;;;;;;;27.60;15.40;;;;;;;;;;4976406;28;20213;-77
2022/01/19 12:18:39;;;;;;;22.80;11.93;;;;;;;;;;4976487;28;20227;-77
2022/01/19 12:21:06;;;;;;;18.80;9.33;;;;;;;;;;4977381;28;20213;-77
2022/01/19 12:23:35;;;;;;;17.50;8.67;;;;;;;;;;4977872;28;20715;-77
2022/01/19 12:26:03;;;;;;;19.77;8.97;;;;;;;;;;4974401;28;20218;-77
2022/01/19 12:28:41;;;;;;;21.57;10.43;;;;;;;;;;4980795;28;20293;-77
2022/01/19 12:31:27;;;;;;;45.27;16.03;;;;;;;;;;4974153;28;20213;-77
2022/01/19 12:34:14;;;;;;;45.23;16.00;;;;;;;;;;4975956;28;20311;-77
2022/01/19 12:36:42;;;;;;;23.40;11.07;;;;;;;;;;4975116;28;20229;-77
2022/01/19 12:39:28;;;;;;;41.07;18.73;;;;;;;;;;4975897;28;20217;-77
2022/01/19 12:41:58;;;;;;;33.17;16.27;;;;;;;;;;4975662;28;20220;-77
2022/01/19 12:44:47;;;;;;;18.07;9.40;;;;;;;;;;4976158;28;20611;-77
2022/01/19 12:47:33;;;;;;;21.80;12.00;;;;;;;;;;4978603;28;20350;-77
2022/01/19 12:50:04;;;;;;;20.87;10.50;;;;;;;;;;4975057;28;20296;-77
2022/01/19 12:52:32;;;;;;;20.93;9.93;;;;;;;;;;4980489;28;20324;-77
2022/01/19 12:55:09;;;;;;;21.43;9.97;;;;;;;;;;4974959;28;20345;-77
2022/01/19 12:57:36;;;;;;;17.80;10.00;;;;;;;;;;4977494;28;20688;-77
2022/01/19 13:00:07;;;;;;;20.57;10.47;;;;;;;;;;4972692;28;20293;-77
2022/01/19 13:02:35;;;;;;;22.37;10.63;;;;;;;;;;4973014;28;20276;-77
2022/01/19 13:05:05;;;;;;;17.30;9.37;;;;;;;;;;4976425;28;20288;-77
2022/01/19 13:07:35;;;;;;;21.80;11.40;;;;;;;;;;4974544;28;20213;-77
2022/01/19 13:10:07;;;;;;;19.90;10.03;;;;;;;;;;4978963;28;20224;-77
2022/01/19 13:12:39;;;;;;;17.10;9.67;;;;;;;;;;4976024;28;20229;-77
2022/01/19 13:15:08;;;;;;;22.97;10.83;;;;;;;;;;4975409;28;20264;-77
2022/01/19 13:17:41;;;;;;;22.57;11.67;;;;;;;;;;4977296;28;20206;-77
2022/01/19 13:20:10;;;;;;;18.50;8.33;;;;;;;;;;4977536;28;20285;-78
2022/01/19 13:22:44;;;;;;;19.53;9.90;;;;;;;;;;4976702;28;20256;-78
2022/01/19 13:25:16;;;;;;;20.40;10.63;;;;;;;;;;4977129;28;20493;-77
2022/01/19 13:27:43;;;;;;;21.10;10.40;;;;;;;;;;4974870;28;20228;-77
2022/01/19 13:30:13;;;;;;;25.80;13.40;;;;;;;;;;4973967;28;20676;-77
2022/01/19 13:32:41;;;;;;;23.20;9.23;;;;;;;;;;4973559;28;20653;-77
2022/01/19 13:35:09;;;;;;;17.70;8.77;;;;;;;;;;4971770;28;20293;-77
2022/01/19 13:37:38;;;;;;;20.00;9.33;;;;;;;;;;4973842;28;20661;-77
2022/01/19 13:40:06;;;;;;;19.20;9.80;;;;;;;;;;4976346;28;20214;-77
2022/01/19 13:42:37;;;;;;;31.83;15.90;;;;;;;;;;4974170;28;20591;-77
2022/01/19 13:45:09;;;;;;;31.77;16.33;;;;;;;;;;4972390;28;20205;-77
2022/01/19 13:47:54;;;;;;;98.93;49.60;;;;;;;;;;4971690;28;20685;-77
2022/01/19 13:50:21;;;;;;;52.70;27.80;;;;;;;;;;4971424;28;20634;-77
2022/01/19 13:52:48;;;;;;;27.53;15.53;;;;;;;;;;4971890;28;20255;-77
2022/01/19 13:55:20;;;;;;;26.50;13.80;;;;;;;;;;4973595;28;20304;-76
2022/01/19 13:57:47;;;;;;;22.43;12.17;;;;;;;;;;4975627;28;20312;-77
2022/01/19 14:00:16;;;;;;;20.63;11.00;;;;;;;;;;4973253;28;20672;-77
2022/01/19 14:02:57;;;;;;;24.43;12.50;;;;;;;;;;4973366;28;20217;-77
2022/01/19 14:05:42;;;;;;;21.90;10.03;;;;;;;;;;4973239;28;20206;-76
2022/01/19 14:08:09;;;;;;;22.80;10.80;;;;;;;;;;4978586;28;20245;-76
2022/01/19 14:10:43;;;;;;;24.10;11.07;;;;;;;;;;4980615;28;20307;-76
2022/01/19 14:13:30;;;;;;;29.23;13.73;;;;;;;;;;4976421;28;20308;-76
2022/01/19 14:15:59;;;;;;;22.60;10.63;;;;;;;;;;4977248;28;20760;-76
2022/01/19 14:18:27;;;;;;;21.20;10.90;;;;;;;;;;4977112;28;20223;-76
2022/01/19 14:21:08;;;;;;;22.30;11.23;;;;;;;;;;4974940;28;20212;-78
2022/01/19 14:23:35;;;;;;;39.10;16.27;;;;;;;;;;4976651;28;20221;-77
2022/01/19 14:26:07;;;;;;;23.07;12.07;;;;;;;;;;4979510;28;20263;-77
2022/01/19 14:28:36;;;;;;;27.57;12.30;;;;;;;;;;4974148;28;20289;-77
2022/01/19 14:31:03;;;;;;;20.77;10.37;;;;;;;;;;4976852;28;20209;-76
2022/01/19 14:33:32;;;;;;;26.63;12.27;;;;;;;;;;4978822;28;20603;-76
2022/01/19 14:36:00;;;;;;;21.43;11.23;;;;;;;;;;4975863;28;20297;-76
2022/01/19 14:38:30;;;;;;;22.53;10.60;;;;;;;;;;4979248;28;20236;-77
2022/01/19 14:41:02;;;;;;;23.20;10.53;;;;;;;;;;4975278;28;20637;-77
2022/01/19 14:43:39;;;;;;;21.47;10.43;;;;;;;;;;4978174;28;20252;-76
2022/01/19 14:46:07;;;;;;;30.37;12.03;;;;;;;;;;4977972;28;20205;-77
2022/01/19 14:48:37;;;;;;;27.17;14.33;;;;;;;;;;4977127;28;20673;-77
2022/01/19 14:51:16;;;;;;;23.27;12.70;;;;;;;;;;4976102;28;20238;-77
2022/01/19 14:53:43;;;;;;;22.23;12.10;;;;;;;;;;4981877;28;20708;-77
2022/01/19 14:56:11;;;;;;;23.90;11.67;;;;;;;;;;4976402;28;20213;-77
2022/01/19 14:58:38;;;;;;;25.33;11.90;;;;;;;;;;4976164;28;20264;-77
2022/01/19 15:01:05;;;;;;;26.53;12.20;;;;;;;;;;4975130;28;20219;-77
2022/01/19 15:03:32;;;;;;;22.50;12.17;;;;;;;;;;4978693;28;20289;-76
2022/01/19 15:06:01;;;;;;;23.47;12.37;;;;;;;;;;4977849;28;20213;-77
2022/01/19 15:08:28;;;;;;;33.17;15.33;;;;;;;;;;4976401;28;20646;-77
2022/01/19 15:10:56;;;;;;;32.33;16.67;;;;;;;;;;4978756;28;20214;-77
2022/01/19 15:13:23;;;;;;;32.80;15.40;;;;;;;;;;4980776;28;20596;-77
2022/01/19 15:15:50;;;;;;;33.50;17.20;;;;;;;;;;4975513;28;20284;-77
2022/01/19 15:18:18;;;;;;;29.57;15.57;;;;;;;;;;4979680;28;20212;-77
2022/01/19 15:20:45;;;;;;;25.07;13.33;;;;;;;;;;4978765;28;20209;-77
2022/01/19 15:23:13;;;;;;;22.93;12.13;;;;;;;;;;4981941;28;20229;-77
2022/01/19 15:25:41;;;;;;;22.60;11.93;;;;;;;;;;4976286;28;20241;-77
2022/01/19 15:28:09;;;;;;;30.77;15.77;;;;;;;;;;4975847;28;20293;-77
2022/01/19 15:30:37;;;;;;;28.77;12.10;;;;;;;;;;4975866;28;20590;-77
2022/01/19 15:33:05;;;;;;;22.37;11.57;;;;;;;;;;4977685;28;20237;-76
2022/01/19 15:35:32;;;;;;;27.40;12.77;;;;;;;;;;4976051;28;20213;-77
2022/01/19 15:38:01;;;;;;;23.17;12.23;;;;;;;;;;4976472;28;20272;-77
2022/01/19 15:40:29;;;;;;;30.13;14.37;;;;;;;;;;4977013;28;20213;-76
2022/01/19 15:42:59;;;;;;;24.13;11.87;;;;;;;;;;4975862;28;20637;-77
2022/01/19 15:45:29;;;;;;;23.10;12.10;;;;;;;;;;4977796;28;20240;-76
2022/01/19 15:47:57;;;;;;;23.30;12.17;;;;;;;;;;4979289;28;20206;-76
2022/01/19 15:50:25;;;;;;;27.33;14.37;;;;;;;;;;4982045;28;20631;-77
2022/01/19 15:52:52;;;;;;;25.40;12.10;;;;;;;;;;4977370;28;20226;-77
2022/01/19 15:55:20;;;;;;;23.37;12.70;;;;;;;;;;4976653;28;20274;-75
2022/01/19 15:57:48;;;;;;;25.50;12.13;;;;;;;;;;4974347;28;20312;-76